createdAt,value
2022-10-21T07:05:19.260Z,9.47
2022-10-21T07:07:47.262Z,10.90
2022-10-21T07:10:15.290Z,16.50
2022-10-21T07:12:43.361Z,8.67
2022-10-21T07:15:12.175Z,16.70
2022-10-21T07:17:40.508Z,14.37
2022-10-21T07:20:10.672Z,15.10
2022-10-21T07:22:39.991Z,15.40
2022-10-21T07:25:09.334Z,19.20
2022-10-21T07:27:37.651Z,17.27
2022-10-21T07:30:06.510Z,16.17
2022-10-21T07:32:34.462Z,15.67
2022-10-21T07:35:02.593Z,12.83
2022-10-21T07:37:30.576Z,13.03
2022-10-21T07:40:00.114Z,10.47
2022-10-21T07:42:29.518Z,15.90
2022-10-21T07:45:01.075Z,9.30
2022-10-21T07:47:29.048Z,11.83
2022-10-21T07:49:57.670Z,18.67
2022-10-21T07:52:25.710Z,11.00
2022-10-21T07:54:53.835Z,11.83
2022-10-21T07:57:23.232Z,11.97
2022-10-21T07:59:51.232Z,11.50
2022-10-21T08:02:19.162Z,12.70
2022-10-21T08:04:47.191Z,14.50
2022-10-21T08:07:15.186Z,8.30
2022-10-21T08:09:43.323Z,9.50
2022-10-21T08:12:14.462Z,8.90
2022-10-21T08:14:45.237Z,10.40
2022-10-21T08:17:13.184Z,10.47
2022-10-21T08:19:41.196Z,9.57
2022-10-21T08:22:09.258Z,12.67
2022-10-21T08:24:39.986Z,9.90
2022-10-21T08:27:10.274Z,14.67
2022-10-21T08:29:40.001Z,10.30
2022-10-21T08:32:09.726Z,12.77
2022-10-21T08:34:38.390Z,9.50
2022-10-21T08:37:06.337Z,11.57
2022-10-21T08:39:34.379Z,12.27
2022-10-21T08:42:13.596Z,12.40
2022-10-21T08:44:46.849Z,13.07
2022-10-21T08:47:31.745Z,15.67
2022-10-21T08:50:05.475Z,13.53
2022-10-21T08:52:40.996Z,11.47
2022-10-21T08:55:16.113Z,8.40
2022-10-21T08:57:44.268Z,12.47
2022-10-21T09:00:16.875Z,12.67
2022-10-21T09:03:13.471Z,9.33
2022-10-21T09:06:18.765Z,8.80
2022-10-21T09:09:00.621Z,4.87
2022-10-21T09:11:39.939Z,10.47
2022-10-21T09:14:34.767Z,8.43
2022-10-21T09:17:19.502Z,7.27
2022-10-21T09:19:56.234Z,13.93
2022-10-21T09:22:41.645Z,9.23
2022-10-21T09:25:20.751Z,9.50
2022-10-21T09:27:56.538Z,6.67
2022-10-21T09:30:26.204Z,5.97
2022-10-21T09:32:58.746Z,10.10
2022-10-21T09:35:34.682Z,5.90
2022-10-21T09:38:07.902Z,6.40
2022-10-21T09:40:36.013Z,7.73
2022-10-21T09:43:06.394Z,8.23
2022-10-21T09:45:36.582Z,4.67
2022-10-21T09:48:07.453Z,6.73
2022-10-21T09:50:40.767Z,7.07
2022-10-21T09:53:14.119Z,7.30
2022-10-21T09:55:44.485Z,6.07
2022-10-21T09:58:26.350Z,10.13
2022-10-21T10:00:55.253Z,8.80
2022-10-21T10:03:34.620Z,5.50
2022-10-21T10:06:05.587Z,8.37
2022-10-21T10:08:37.081Z,8.43
2022-10-21T10:11:17.608Z,11.20
2022-10-21T10:13:47.828Z,10.93
2022-10-21T10:16:26.178Z,5.43
2022-10-21T10:19:10.571Z,4.73
2022-10-21T10:21:39.913Z,7.37
2022-10-21T10:24:16.564Z,8.23
2022-10-21T10:26:44.917Z,4.43
2022-10-21T10:29:25.037Z,11.13
2022-10-21T10:31:57.571Z,7.50
2022-10-21T10:34:30.981Z,10.17
2022-10-21T10:37:05.602Z,12.13
2022-10-21T10:39:36.238Z,6.10
2022-10-21T10:42:05.255Z,9.67
2022-10-21T10:44:37.810Z,8.63
2022-10-21T10:47:09.068Z,10.30
2022-10-21T10:49:40.184Z,4.67
2022-10-21T10:52:21.495Z,6.20
2022-10-21T10:54:50.485Z,11.37
2022-10-21T10:57:30.844Z,10.27
2022-10-21T11:00:17.444Z,6.87
2022-10-21T11:02:52.226Z,7.30
2022-10-21T11:05:24.558Z,6.72
2022-10-21T11:07:56.592Z,6.30
2022-10-21T11:10:33.326Z,7.60
2022-10-21T11:13:02.708Z,6.32
2022-10-21T11:15:47.013Z,6.28
2022-10-21T11:18:24.417Z,8.55
2022-10-21T11:21:02.569Z,4.90
2022-10-21T11:24:03.732Z,5.95
2022-10-21T11:26:43.100Z,6.85
2022-10-21T11:29:26.289Z,6.70
2022-10-21T11:32:12.569Z,6.70
2022-10-21T11:34:51.610Z,5.05
2022-10-21T11:37:26.644Z,5.88
2022-10-21T11:40:04.303Z,4.25
2022-10-21T11:42:39.031Z,4.85
2022-10-21T11:45:37.691Z,7.70
2022-10-21T11:48:17.256Z,3.75
2022-10-21T11:50:56.211Z,5.03
2022-10-21T11:53:37.721Z,4.05
2022-10-21T11:56:21.211Z,6.82
2022-10-21T11:59:01.740Z,5.28
2022-10-21T12:01:45.271Z,8.57
2022-10-21T12:04:26.196Z,9.35
2022-10-21T12:07:11.201Z,6.68
2022-10-21T12:09:45.610Z,5.53
2022-10-21T12:12:17.818Z,6.57
2022-10-21T12:14:49.903Z,7.47
2022-10-21T12:17:20.876Z,3.38
2022-10-21T12:19:55.786Z,5.30
2022-10-21T12:22:27.116Z,5.28
2022-10-21T12:25:01.774Z,2.72
2022-10-21T12:27:40.914Z,4.13
2022-10-21T12:30:15.300Z,5.38
2022-10-21T12:32:51.113Z,3.15
2022-10-21T12:35:27.127Z,5.10
2022-10-21T12:38:21.981Z,5.85
2022-10-21T12:40:51.421Z,4.03
2022-10-21T12:43:27.323Z,5.90
2022-10-21T12:46:08.774Z,6.20
2022-10-21T12:48:40.519Z,4.30
2022-10-21T12:51:19.738Z,6.13
2022-10-21T12:56:31.447Z,4.88
2022-10-21T12:59:03.613Z,4.38
2022-10-21T13:01:38.934Z,3.55
2022-10-21T13:04:36.291Z,6.03
2022-10-21T13:07:05.215Z,3.60
2022-10-21T13:09:39.150Z,2.42
2022-10-21T13:12:29.923Z,5.35
2022-10-21T13:15:01.940Z,6.28
2022-10-21T13:17:51.340Z,4.78
2022-10-21T13:20:49.169Z,4.88
2022-10-21T13:23:38.390Z,2.50
2022-10-21T13:26:14.496Z,5.57
2022-10-21T13:28:42.994Z,6.30
2022-10-21T13:31:22.194Z,3.25
2022-10-21T13:33:54.390Z,7.18
2022-10-21T13:39:22.298Z,3.50
2022-10-21T13:41:59.771Z,3.88
2022-10-21T13:44:32.110Z,3.42
2022-10-21T13:47:19.781Z,6.78
2022-10-21T13:49:52.091Z,2.58
2022-10-21T13:52:20.131Z,5.95
2022-10-21T13:54:56.754Z,6.60
2022-10-21T13:57:24.838Z,2.45
2022-10-21T14:00:01.513Z,5.60
2022-10-21T14:02:33.358Z,11.45
2022-10-21T14:05:01.441Z,4.20
2022-10-21T14:07:29.891Z,4.05
2022-10-21T14:09:59.629Z,3.67
2022-10-21T14:12:30.797Z,3.67
2022-10-21T14:15:06.015Z,5.15
2022-10-21T14:17:39.411Z,4.40
2022-10-21T14:20:14.489Z,7.53
2022-10-21T14:22:42.905Z,4.15
2022-10-21T14:25:16.958Z,6.03
2022-10-21T14:27:47.224Z,4.63
2022-10-21T14:30:21.055Z,2.85
2022-10-21T14:32:51.655Z,8.10
2022-10-21T14:35:29.350Z,6.88
2022-10-21T14:37:58.705Z,6.75
2022-10-21T14:40:31.949Z,3.97
2022-10-21T14:43:02.024Z,4.90
2022-10-21T14:45:32.556Z,5.38
2022-10-21T14:48:09.960Z,9.30
2022-10-21T14:50:40.270Z,6.22
2022-10-21T14:53:16.420Z,6.97
2022-10-21T14:55:45.389Z,5.07
2022-10-21T14:58:23.074Z,5.40
2022-10-21T15:00:55.896Z,6.03
2022-10-21T15:03:42.765Z,8.40
2022-10-21T15:06:13.912Z,6.22
2022-10-21T15:08:43.553Z,4.82
2022-10-21T15:11:40.306Z,5.32
2022-10-21T15:14:19.437Z,6.10
2022-10-21T15:16:49.148Z,6.80
2022-10-21T15:19:21.705Z,5.00
2022-10-21T15:21:52.690Z,7.93
2022-10-21T15:24:24.460Z,3.87
2022-10-21T15:26:54.562Z,8.37
2022-10-21T15:29:29.105Z,5.17
2022-10-21T15:31:58.907Z,6.67
2022-10-21T15:34:28.881Z,8.57
2022-10-21T15:36:57.012Z,7.00
2022-10-21T15:39:24.994Z,5.53
2022-10-21T15:41:55.105Z,16.00
2022-10-21T15:44:26.600Z,7.97
2022-10-21T15:47:00.411Z,9.03
2022-10-21T15:49:33.593Z,9.03
2022-10-21T15:52:02.128Z,10.87
2022-10-21T15:54:30.278Z,10.07
2022-10-21T15:57:00.229Z,5.63
2022-10-21T15:59:29.833Z,8.77
2022-10-21T16:01:58.702Z,8.67
2022-10-21T16:04:27.835Z,11.70
2022-10-21T16:06:57.347Z,10.63
2022-10-21T16:09:28.027Z,11.03
2022-10-21T16:12:00.532Z,10.77
2022-10-21T16:14:30.685Z,10.33
2022-10-21T16:16:59.889Z,13.17
